createdAt,value
2022-09-02T00:01:27.513Z,4.35
2022-09-02T00:04:21.820Z,2.90
2022-09-02T00:07:11.280Z,2.42
2022-09-02T00:10:00.653Z,2.53
2022-09-02T00:12:49.867Z,2.83
2022-09-02T00:15:39.515Z,6.45
2022-09-02T00:18:30.629Z,3.08
2022-09-02T00:21:23.777Z,3.05
2022-09-02T00:24:13.030Z,3.78
2022-09-02T00:27:03.017Z,2.70
2022-09-02T00:29:52.488Z,2.13
2022-09-02T00:32:42.429Z,2.45
2022-09-02T00:35:33.558Z,3.95
2022-09-02T00:38:23.065Z,3.20
2022-09-02T00:41:14.465Z,3.10
2022-09-02T00:44:09.099Z,3.25
2022-09-02T00:46:58.273Z,3.10
2022-09-02T00:49:53.792Z,2.92
2022-09-02T00:52:53.577Z,2.67
2022-09-02T00:55:47.716Z,2.78
2022-09-02T00:58:40.046Z,2.92
2022-09-02T01:01:29.659Z,2.90
2022-09-02T01:04:19.203Z,2.45
2022-09-02T01:07:09.629Z,2.70
2022-09-02T01:10:01.264Z,3.75
2022-09-02T01:12:51.039Z,3.65
2022-09-02T01:15:44.562Z,2.40
2022-09-02T01:18:36.675Z,4.15
2022-09-02T01:21:25.950Z,2.15
2022-09-02T01:24:18.558Z,2.40
2022-09-02T01:27:07.822Z,2.40
2022-09-02T01:30:01.575Z,2.38
2022-09-02T01:32:51.544Z,2.95
2022-09-02T01:35:41.384Z,2.55
2022-09-02T01:38:31.788Z,2.25
2022-09-02T01:41:22.463Z,3.10
2022-09-02T01:44:12.257Z,2.33
2022-09-02T01:47:01.667Z,4.00
2022-09-02T01:49:52.142Z,2.55
2022-09-02T01:52:41.458Z,2.33
2022-09-02T01:55:31.347Z,2.17
2022-09-02T01:58:22.457Z,2.22
2022-09-02T02:01:12.508Z,2.88
2022-09-02T02:04:04.207Z,2.58
2022-09-02T02:06:53.931Z,4.65
2022-09-02T02:09:44.794Z,2.35
2022-09-02T02:12:33.918Z,2.90
2022-09-02T02:18:13.992Z,2.90
2022-09-02T02:21:03.293Z,2.10
2022-09-02T02:23:53.173Z,2.40
2022-09-02T02:26:42.521Z,4.18
2022-09-02T02:29:31.714Z,1.80
2022-09-02T02:32:22.272Z,2.03
2022-09-02T02:35:12.397Z,2.72
2022-09-02T02:38:03.702Z,2.25
2022-09-02T02:40:56.622Z,4.13
2022-09-02T02:43:47.417Z,3.58
2022-09-02T02:46:36.739Z,3.20
2022-09-02T02:49:27.639Z,3.00
2022-09-02T02:52:16.848Z,1.92
2022-09-02T02:55:07.645Z,3.00
2022-09-02T02:57:59.702Z,2.40
2022-09-02T03:00:50.100Z,2.28
2022-09-02T03:03:39.499Z,3.70
2022-09-02T03:06:30.484Z,2.60
2022-09-02T03:09:20.498Z,2.03
2022-09-02T03:12:09.870Z,5.93
2022-09-02T03:14:59.063Z,2.63
2022-09-02T03:17:49.823Z,3.90
2022-09-02T03:20:40.558Z,2.35
2022-09-02T03:23:31.032Z,2.40
2022-09-02T03:26:24.562Z,2.28
2022-09-02T03:29:13.792Z,2.30
2022-09-02T03:32:03.138Z,2.28
2022-09-02T03:34:52.583Z,2.83
2022-09-02T03:37:42.262Z,2.47
2022-09-02T03:40:32.875Z,3.38
2022-09-02T03:43:22.264Z,2.45
2022-09-02T03:46:11.659Z,3.95
2022-09-02T03:49:01.114Z,3.97
2022-09-02T03:51:50.370Z,2.35
2022-09-02T03:54:39.714Z,2.70
2022-09-02T03:57:30.360Z,3.30
2022-09-02T04:00:25.190Z,4.25
2022-09-02T04:03:14.444Z,2.15
2022-09-02T04:06:03.675Z,2.72
2022-09-02T04:08:53.076Z,2.53
2022-09-02T04:11:43.289Z,3.83
2022-09-02T04:14:34.070Z,6.88
2022-09-02T04:18:37.247Z,9.30
2022-09-02T04:21:27.878Z,8.63
2022-09-02T04:24:17.050Z,9.55
2022-09-02T04:27:06.462Z,8.07
2022-09-02T04:29:57.390Z,12.05
2022-09-02T04:32:46.790Z,10.45
2022-09-02T04:35:40.526Z,6.30
2022-09-02T04:38:29.695Z,7.70
2022-09-02T04:41:22.929Z,7.20
2022-09-02T04:44:12.131Z,7.70
2022-09-02T04:47:02.796Z,5.20
2022-09-02T04:49:52.867Z,6.90
2022-09-02T04:52:42.424Z,5.68
2022-09-02T04:55:32.655Z,4.70
2022-09-02T04:58:21.976Z,5.53
2022-09-02T05:01:15.308Z,3.65
2022-09-02T05:04:09.894Z,3.85
2022-09-02T05:07:01.507Z,7.38
2022-09-02T05:09:51.397Z,4.25
2022-09-02T05:12:41.915Z,4.28
2022-09-02T05:15:31.767Z,4.65
2022-09-02T05:18:21.054Z,3.92
2022-09-02T05:21:12.148Z,4.15
2022-09-02T05:24:01.513Z,4.97
2022-09-02T05:26:51.092Z,3.22
2022-09-02T05:29:43.966Z,5.78
2022-09-02T05:32:37.742Z,3.50
2022-09-02T05:35:27.353Z,3.40
2022-09-02T05:38:18.241Z,2.95
2022-09-02T05:41:08.498Z,3.22
2022-09-02T05:44:03.641Z,2.78
2022-09-02T05:46:53.840Z,4.32
2022-09-02T05:49:43.055Z,6.18
2022-09-02T05:52:32.398Z,6.13
2022-09-02T05:55:22.859Z,4.45
2022-09-02T05:58:12.223Z,4.60
2022-09-02T06:01:01.342Z,3.63
2022-09-02T06:03:52.891Z,3.97
2022-09-02T06:06:42.394Z,3.58
2022-09-02T06:09:31.677Z,2.78
2022-09-02T06:12:25.261Z,2.92
2022-09-02T06:15:14.950Z,6.47
2022-09-02T06:18:04.170Z,3.25
2022-09-02T06:20:54.825Z,3.25
2022-09-02T06:23:46.026Z,3.28
2022-09-02T06:26:35.782Z,8.18
2022-09-02T06:29:27.915Z,3.25
2022-09-02T06:32:17.059Z,6.07
2022-09-02T06:35:08.886Z,2.75
2022-09-02T06:38:01.091Z,3.42
2022-09-02T06:40:54.627Z,7.03
2022-09-02T06:43:44.498Z,4.63
2022-09-02T06:46:39.982Z,3.03
2022-09-02T06:49:29.848Z,3.67
2022-09-02T06:52:18.973Z,4.15
2022-09-02T06:55:10.651Z,2.65
2022-09-02T06:57:59.893Z,2.75
2022-09-02T07:00:49.306Z,1.98
2022-09-02T07:03:57.648Z,5.47
2022-09-02T07:06:50.040Z,2.53
2022-09-02T07:09:40.347Z,3.05
2022-09-02T07:12:29.476Z,2.30
2022-09-02T07:15:19.210Z,4.43
2022-09-02T07:18:08.491Z,2.90
2022-09-02T07:20:59.070Z,2.85
2022-09-02T07:23:48.470Z,6.60
2022-09-02T07:26:38.346Z,5.93
2022-09-02T07:29:27.882Z,5.75
2022-09-02T07:32:17.647Z,6.57
2022-09-02T07:35:09.288Z,2.55
2022-09-02T07:37:59.908Z,3.83
2022-09-02T07:40:50.704Z,3.05
2022-09-02T07:43:49.671Z,2.60
2022-09-02T07:46:41.319Z,2.30
2022-09-02T07:50:15.491Z,2.08
2022-09-02T07:52:43.328Z,1.77
2022-09-02T07:55:37.362Z,3.20
2022-09-02T07:58:27.764Z,2.22
2022-09-02T08:01:23.459Z,3.72
2022-09-02T08:04:14.085Z,2.80
2022-09-02T08:07:03.308Z,2.50
2022-09-02T08:09:52.746Z,2.47
2022-09-02T08:12:46.466Z,3.63
2022-09-02T08:15:37.416Z,2.60
2022-09-02T08:18:26.968Z,2.78
2022-09-02T08:21:16.163Z,3.80
2022-09-02T08:24:05.801Z,3.20
2022-09-02T08:26:54.957Z,3.47
2022-09-02T08:29:45.410Z,4.30
2022-09-02T08:32:34.878Z,3.05
2022-09-02T08:35:24.062Z,3.10
2022-09-02T08:38:13.303Z,3.80
2022-09-02T08:41:02.884Z,2.00
2022-09-02T08:43:56.369Z,3.10
2022-09-02T08:46:48.090Z,1.75
2022-09-02T08:49:44.740Z,3.17
2022-09-02T08:52:42.569Z,4.53
2022-09-02T08:55:44.235Z,1.42
2022-09-02T08:58:41.746Z,2.28
2022-09-02T09:01:46.292Z,1.90
2022-09-02T09:05:07.324Z,1.77
2022-09-02T09:08:13.927Z,1.63
2022-09-02T09:11:10.714Z,2.53
2022-09-02T09:14:28.399Z,2.30
2022-09-02T09:17:30.141Z,2.05
2022-09-02T09:20:27.334Z,1.80
2022-09-02T09:23:33.986Z,1.92
2022-09-02T09:26:30.250Z,2.67
2022-09-02T09:29:19.444Z,1.70
2022-09-02T09:32:28.886Z,3.83
2022-09-02T09:35:20.651Z,2.20
2022-09-02T09:38:15.467Z,4.20
2022-09-02T09:41:20.583Z,2.40
2022-09-02T09:44:09.769Z,2.17
2022-09-02T09:47:03.299Z,2.85
2022-09-02T09:49:54.240Z,1.90
2022-09-02T09:52:45.339Z,2.63
2022-09-02T09:55:39.372Z,4.72
2022-09-02T09:58:35.267Z,3.13
2022-09-02T10:01:29.460Z,4.90
2022-09-02T10:04:46.249Z,1.77
2022-09-02T10:07:39.729Z,2.63
2022-09-02T10:10:33.121Z,3.08
2022-09-02T10:13:27.882Z,2.08
2022-09-02T10:16:32.145Z,1.48
2022-09-02T10:19:34.238Z,2.38
2022-09-02T10:22:59.382Z,2.47
2022-09-02T10:26:05.390Z,1.50
2022-09-02T10:29:33.518Z,5.18
2022-09-02T10:32:41.036Z,2.38
2022-09-02T10:35:42.463Z,2.28
2022-09-02T10:38:43.618Z,2.27
2022-09-02T10:44:55.588Z,1.10
2022-09-02T10:48:02.139Z,1.55
2022-09-02T10:50:59.714Z,1.75
2022-09-02T10:54:09.688Z,4.53
2022-09-02T10:57:09.149Z,2.13
2022-09-02T11:00:06.847Z,2.17
2022-09-02T11:03:08.216Z,1.20
2022-09-02T11:06:06.064Z,1.70
2022-09-02T11:09:00.318Z,2.05
2022-09-02T11:12:00.515Z,1.55
2022-09-02T11:15:06.007Z,1.50
2022-09-02T11:21:14.593Z,1.73
2022-09-02T11:24:11.029Z,2.25
2022-09-02T11:27:25.974Z,1.67
2022-09-02T11:30:26.635Z,2.53
2022-09-02T11:33:24.419Z,3.03
2022-09-02T11:36:14.417Z,1.80
2022-09-02T11:39:11.706Z,3.17
2022-09-02T11:42:27.564Z,2.13
2022-09-02T11:45:59.420Z,2.88
2022-09-02T11:49:31.923Z,4.57
2022-09-02T11:55:36.949Z,3.55
2022-09-02T11:58:38.934Z,5.20
2022-09-02T12:01:34.793Z,2.88
2022-09-02T12:11:04.325Z,1.83
2022-09-02T12:13:55.842Z,1.65
2022-09-02T12:17:03.631Z,2.08
2022-09-02T12:19:52.736Z,1.92
2022-09-02T12:22:42.579Z,2.22
2022-09-02T12:25:49.496Z,2.80
2022-09-02T12:28:40.073Z,2.58
2022-09-02T12:31:43.221Z,2.33
2022-09-02T12:34:57.342Z,2.55
2022-09-02T12:37:57.596Z,1.83
2022-09-02T12:41:01.255Z,2.28
2022-09-02T12:44:25.336Z,3.20
2022-09-02T12:47:32.924Z,2.38
2022-09-02T12:50:32.289Z,2.60
2022-09-02T12:53:38.696Z,3.17
2022-09-02T12:56:30.746Z,2.58
2022-09-02T12:59:31.405Z,1.92
2022-09-02T13:02:50.910Z,2.10
2022-09-02T13:05:56.985Z,1.70
2022-09-02T13:13:03.803Z,1.15
2022-09-02T13:16:18.701Z,2.00
2022-09-02T13:19:46.166Z,1.92
2022-09-02T13:23:05.642Z,2.13
2022-09-02T13:26:48.447Z,2.00
2022-09-02T13:30:08.495Z,1.10
2022-09-02T13:35:59.061Z,3.22
2022-09-02T13:38:49.658Z,4.03
2022-09-02T13:41:38.959Z,1.35
2022-09-02T13:44:30.085Z,2.00
2022-09-02T13:47:21.040Z,1.98
2022-09-02T13:50:13.105Z,1.27
2022-09-02T13:56:18.544Z,1.77
2022-09-02T13:59:07.720Z,2.25
2022-09-02T14:01:57.093Z,2.78
2022-09-02T14:04:47.117Z,2.10
2022-09-02T14:07:42.299Z,1.90
2022-09-02T14:10:34.270Z,1.70
2022-09-02T14:13:25.275Z,1.80
2022-09-02T14:16:34.274Z,2.37
2022-09-02T14:19:27.133Z,1.60
2022-09-02T14:22:29.347Z,1.35
2022-09-02T14:25:22.243Z,1.55
2022-09-02T14:28:25.152Z,1.40
2022-09-02T14:31:30.536Z,1.73
2022-09-02T14:34:37.550Z,1.63
2022-09-02T14:37:29.106Z,1.65
2022-09-02T14:40:19.696Z,2.00
2022-09-02T14:43:15.288Z,2.95
2022-09-02T14:46:25.450Z,1.15
2022-09-02T14:49:25.556Z,1.48
2022-09-02T14:52:21.228Z,2.65
2022-09-02T14:55:52.514Z,1.30
2022-09-02T14:58:41.849Z,3.58
2022-09-02T15:01:32.479Z,3.58
2022-09-02T15:04:22.055Z,1.50
2022-09-02T15:07:11.209Z,1.50
2022-09-02T15:10:00.778Z,2.55
2022-09-02T15:12:53.446Z,1.42
2022-09-02T15:15:42.927Z,1.10
2022-09-02T15:18:33.482Z,1.25
2022-09-02T15:21:22.742Z,1.17
2022-09-02T15:24:11.934Z,1.20
2022-09-02T15:27:01.386Z,1.50
2022-09-02T15:29:50.594Z,1.27
2022-09-02T15:32:40.064Z,1.80
2022-09-02T15:35:32.434Z,1.38
2022-09-02T15:38:21.921Z,5.05
2022-09-02T15:41:13.792Z,2.00
2022-09-02T15:46:52.551Z,2.50
2022-09-02T15:49:41.649Z,3.30
2022-09-02T15:52:32.178Z,1.20
2022-09-02T15:55:25.011Z,1.30
2022-09-02T15:58:18.507Z,1.90
2022-09-02T16:01:09.178Z,2.88
2022-09-02T16:04:00.446Z,3.55
2022-09-02T16:06:52.281Z,2.45
2022-09-02T16:12:32.962Z,2.03
2022-09-02T16:15:22.077Z,10.93
2022-09-02T16:18:12.149Z,1.85
2022-09-02T16:21:02.204Z,2.40
2022-09-02T16:23:51.463Z,2.13
2022-09-02T16:26:43.350Z,1.30
2022-09-02T16:29:33.023Z,4.40
2022-09-02T16:32:27.342Z,1.48
2022-09-02T16:35:17.249Z,1.90
2022-09-02T16:38:06.299Z,2.85
2022-09-02T16:40:57.699Z,3.28
2022-09-02T16:43:48.217Z,3.05
2022-09-02T16:46:40.746Z,2.58
2022-09-02T16:49:29.889Z,1.83
2022-09-02T16:52:21.400Z,3.42
2022-09-02T16:55:10.827Z,2.40
2022-09-02T16:58:01.697Z,2.00
2022-09-02T17:00:52.234Z,2.67
2022-09-02T17:03:42.785Z,2.85
2022-09-02T17:06:33.060Z,3.58
2022-09-02T17:09:22.283Z,3.55
2022-09-02T17:12:11.426Z,2.17
2022-09-02T17:15:00.610Z,3.50
2022-09-02T17:17:54.131Z,3.70
2022-09-02T17:20:43.292Z,3.50
2022-09-02T17:23:32.640Z,3.78
2022-09-02T17:26:25.885Z,2.15
2022-09-02T17:29:46.944Z,1.55
2022-09-02T17:35:18.909Z,3.05
2022-09-02T17:38:08.113Z,1.70
2022-09-02T17:41:14.865Z,1.73
2022-09-02T17:44:04.780Z,1.75
2022-09-02T17:46:55.742Z,2.45
2022-09-02T17:49:45.252Z,1.42
2022-09-02T17:52:35.720Z,2.08
2022-09-02T17:55:24.985Z,1.45
2022-09-02T17:58:22.453Z,1.98
2022-09-02T18:01:17.067Z,1.30
2022-09-02T18:04:27.442Z,2.47
2022-09-02T18:07:33.661Z,1.60
2022-09-02T18:10:24.783Z,1.55
2022-09-02T18:13:19.859Z,1.30
2022-09-02T18:16:25.773Z,1.48
2022-09-02T18:19:36.937Z,1.35
2022-09-02T18:23:01.628Z,1.50
2022-09-02T18:26:07.144Z,3.53
2022-09-02T18:29:12.122Z,1.50
2022-09-02T18:32:14.470Z,1.85
2022-09-02T18:35:26.930Z,1.70
2022-09-02T18:38:28.527Z,1.70
2022-09-02T18:41:42.228Z,2.95
2022-09-02T18:44:42.899Z,2.40
2022-09-02T18:47:41.715Z,4.68
2022-09-02T18:50:49.619Z,1.80
2022-09-02T18:53:46.721Z,2.10
2022-09-02T18:56:38.830Z,1.90
2022-09-02T18:59:35.336Z,2.03
2022-09-02T19:02:36.661Z,2.08
2022-09-02T19:05:28.462Z,3.72
2022-09-02T19:08:34.369Z,3.33
2022-09-02T19:11:25.747Z,3.10
2022-09-02T19:14:27.308Z,2.25
2022-09-02T19:17:17.240Z,1.70
2022-09-02T19:20:14.660Z,3.47
2022-09-02T19:23:08.319Z,1.73
2022-09-02T19:25:59.282Z,1.83
2022-09-02T19:28:49.730Z,3.47
2022-09-02T19:31:43.480Z,2.60
2022-09-02T19:34:38.416Z,1.75
2022-09-02T19:37:29.251Z,1.58
2022-09-02T19:40:24.216Z,1.55
2022-09-02T19:43:16.006Z,1.52
2022-09-02T19:46:06.443Z,5.53
2022-09-02T19:48:57.008Z,1.75
2022-09-02T19:51:47.262Z,1.70
2022-09-02T19:54:36.587Z,2.38
2022-09-02T19:57:26.469Z,2.05
2022-09-02T20:00:17.226Z,3.25
2022-09-02T20:03:06.494Z,1.75
2022-09-02T20:05:57.249Z,1.65
2022-09-02T20:08:46.753Z,2.15
2022-09-02T20:11:37.215Z,1.92
2022-09-02T20:14:30.381Z,2.45
2022-09-02T20:17:23.180Z,2.65
2022-09-02T20:20:20.001Z,2.00
2022-09-02T20:23:15.061Z,2.08
2022-09-02T20:26:29.323Z,3.05
2022-09-02T20:30:00.843Z,3.83
2022-09-02T20:33:00.430Z,2.45
2022-09-02T20:36:09.690Z,1.90
2022-09-02T20:39:28.711Z,3.63
2022-09-02T20:42:50.361Z,2.55
2022-09-02T20:45:45.796Z,2.00
2022-09-02T20:49:00.187Z,2.60
2022-09-02T20:52:00.787Z,1.98
2022-09-02T20:55:03.164Z,3.65
2022-09-02T20:58:19.503Z,3.70
2022-09-02T21:01:13.177Z,2.10
2022-09-02T21:04:28.239Z,2.00
2022-09-02T21:07:25.396Z,2.13
2022-09-02T21:10:23.262Z,2.08
2022-09-02T21:13:22.624Z,1.80
2022-09-02T21:16:19.933Z,2.55
2022-09-02T21:19:18.475Z,2.83
2022-09-02T21:22:19.126Z,6.30
2022-09-02T21:25:16.551Z,5.25
2022-09-02T21:28:17.462Z,3.95
2022-09-02T21:31:19.027Z,7.43
2022-09-02T21:34:17.672Z,6.40
2022-09-02T21:37:10.029Z,7.10
2022-09-02T21:40:06.869Z,10.20
2022-09-02T21:43:22.411Z,12.25
2022-09-02T21:46:25.605Z,6.75
2022-09-02T21:49:38.356Z,6.82
2022-09-02T21:52:44.633Z,6.22
2022-09-02T21:56:02.577Z,7.03
2022-09-02T21:59:52.182Z,5.88
2022-09-02T22:02:55.821Z,5.03
2022-09-02T22:05:55.814Z,4.93
2022-09-02T22:08:58.473Z,4.72
2022-09-02T22:11:59.474Z,4.72
2022-09-02T22:15:04.092Z,4.32
2022-09-02T22:17:59.712Z,3.65
2022-09-02T22:20:59.391Z,3.47
2022-09-02T22:23:49.196Z,4.35
2022-09-02T22:26:46.807Z,5.45
2022-09-02T22:29:46.654Z,3.60
2022-09-02T22:32:44.362Z,4.28
2022-09-02T22:35:42.928Z,3.30
2022-09-02T22:38:41.953Z,3.22
2022-09-02T22:41:56.089Z,3.70
2022-09-02T22:45:11.243Z,3.28
2022-09-02T22:48:28.326Z,3.35
2022-09-02T22:51:44.627Z,2.80
2022-09-02T22:54:33.878Z,2.60
2022-09-02T22:57:39.937Z,3.90
2022-09-02T23:00:35.857Z,2.83
2022-09-02T23:03:38.824Z,2.33
2022-09-02T23:06:30.473Z,4.35
2022-09-02T23:09:19.627Z,4.05
2022-09-02T23:12:28.668Z,3.80
2022-09-02T23:15:32.922Z,3.15
2022-09-02T23:18:37.799Z,3.85
2022-09-02T23:21:40.069Z,3.50
2022-09-02T23:24:45.287Z,2.80
2022-09-02T23:27:45.020Z,2.85
2022-09-02T23:30:36.573Z,2.70
2022-09-02T23:33:49.171Z,3.00
2022-09-02T23:36:51.320Z,2.70
2022-09-02T23:40:00.862Z,2.30
2022-09-02T23:42:51.354Z,2.63
2022-09-02T23:45:40.745Z,2.75
2022-09-02T23:48:47.147Z,3.13
2022-09-02T23:51:51.164Z,3.15
2022-09-02T23:55:09.085Z,2.85
2022-09-02T23:58:32.302Z,2.08
